createdAt,value
2019-04-01T00:00:47.501Z,101073.91
2019-04-01T00:03:15.767Z,101070.98
2019-04-01T00:05:44.860Z,101072.75
2019-04-01T00:08:13.724Z,101069.45
2019-04-01T00:10:42.078Z,101068.28
2019-04-01T00:13:12.979Z,101078.20
2019-04-01T00:15:41.979Z,101078.06
2019-04-01T00:18:11.075Z,101081.61
2019-04-01T00:20:39.888Z,101077.58
2019-04-01T00:23:08.854Z,101075.80
2019-04-01T00:25:38.149Z,101076.66
2019-04-01T00:28:07.342Z,101079.59
2019-04-01T00:30:35.945Z,101078.91
2019-04-01T00:33:04.804Z,101078.67
2019-04-01T00:35:34.360Z,101080.77
2019-04-01T00:38:04.453Z,101080.02
2019-04-01T00:40:33.298Z,101074.63
2019-04-01T00:43:06.036Z,101082.30
2019-04-01T00:45:36.220Z,101081.97
2019-04-01T00:48:05.235Z,101086.28
2019-04-01T00:50:34.242Z,101084.25
2019-04-01T00:53:02.882Z,101077.48
2019-04-01T00:55:33.301Z,101080.61
2019-04-01T00:58:02.631Z,101081.27
2019-04-01T01:00:31.729Z,101077.54
2019-04-01T01:03:00.087Z,101080.30
2019-04-01T01:05:28.486Z,101079.61
2019-04-01T01:07:56.950Z,101081.45
2019-04-01T01:10:26.267Z,101082.78
2019-04-01T01:12:55.148Z,101086.40
2019-04-01T01:15:23.312Z,101089.62
2019-04-01T01:17:52.264Z,101081.98
2019-04-01T01:20:33.935Z,101080.28
2019-04-01T01:23:02.802Z,101078.43
2019-04-01T01:25:31.258Z,101076.14
2019-04-01T01:28:00.156Z,101074.75
2019-04-01T01:30:28.856Z,101078.41
2019-04-01T01:32:57.746Z,101076.59
2019-04-01T01:35:27.277Z,101071.74
2019-04-01T01:37:56.749Z,101076.47
2019-04-01T01:40:25.000Z,101071.58
2019-04-01T01:42:53.498Z,101063.17
2019-04-01T01:45:22.501Z,101060.42
2019-04-01T01:47:50.954Z,101057.05
2019-04-01T01:50:21.464Z,101048.38
2019-04-01T01:52:50.387Z,101050.23
2019-04-01T01:55:19.354Z,101049.12
2019-04-01T01:57:47.548Z,101056.11
2019-04-01T02:00:17.885Z,101047.73
2019-04-01T02:02:48.248Z,101052.16
2019-04-01T02:05:16.478Z,101055.19
2019-04-01T02:07:45.176Z,101049.97
2019-04-01T02:10:14.434Z,101053.26
2019-04-01T02:12:43.050Z,101054.56
2019-04-01T02:15:12.052Z,101058.69
2019-04-01T02:17:40.258Z,101047.53
2019-04-01T02:20:09.912Z,101047.25
2019-04-01T02:22:38.817Z,101047.84
2019-04-01T02:25:09.183Z,101044.02
2019-04-01T02:27:38.509Z,101044.29
2019-04-01T02:30:07.642Z,101046.16
2019-04-01T02:32:36.045Z,101048.45
2019-04-01T02:35:06.331Z,101045.27
2019-04-01T02:37:34.511Z,101040.04
2019-04-01T02:40:03.199Z,101043.81
2019-04-01T02:42:31.794Z,101038.89
2019-04-01T02:45:01.038Z,101044.45
2019-04-01T02:47:29.473Z,101043.23
2019-04-01T02:50:00.017Z,101044.34
2019-04-01T02:52:30.263Z,101032.95
2019-04-01T02:54:58.597Z,101040.06
2019-04-01T02:57:27.587Z,101041.58
2019-04-01T02:59:56.194Z,101036.75
2019-04-01T03:02:24.749Z,101046.16
2019-04-01T03:04:53.419Z,101043.13
2019-04-01T03:07:22.512Z,101043.67
2019-04-01T03:09:50.822Z,101045.19
2019-04-01T03:12:19.928Z,101044.39
2019-04-01T03:14:48.282Z,101044.04
2019-04-01T03:17:18.288Z,101046.44
2019-04-01T03:19:47.628Z,101048.61
2019-04-01T03:22:16.282Z,101042.60
2019-04-01T03:24:45.383Z,101048.78
2019-04-01T03:27:17.303Z,101043.21
2019-04-01T03:29:44.965Z,101044.23
2019-04-01T03:32:14.441Z,101049.95
2019-04-01T03:34:42.683Z,101051.20
2019-04-01T03:37:12.599Z,101049.82
2019-04-01T03:39:42.392Z,101054.88
2019-04-01T03:42:11.203Z,101052.37
2019-04-01T03:44:39.876Z,101052.47
2019-04-01T03:47:09.289Z,101050.13
2019-04-01T03:49:41.115Z,101051.44
2019-04-01T03:52:10.703Z,101052.36
2019-04-01T03:54:41.099Z,101052.89
2019-04-01T03:57:09.759Z,101056.02
2019-04-01T03:59:40.299Z,101049.11
2019-04-01T04:02:09.289Z,101058.30
2019-04-01T04:04:38.488Z,101048.84
2019-04-01T04:07:07.612Z,101052.59
2019-04-01T04:09:35.842Z,101051.41
2019-04-01T04:12:05.153Z,101054.69
2019-04-01T04:14:34.342Z,101051.65
2019-04-01T04:17:02.918Z,101050.45
2019-04-01T04:19:31.180Z,101056.90
2019-04-01T04:21:59.362Z,101055.86
2019-04-01T04:24:30.056Z,101060.34
2019-04-01T04:26:59.565Z,101062.40
2019-04-01T04:29:28.085Z,101057.30
2019-04-01T04:31:57.170Z,101070.50
2019-04-01T04:34:25.902Z,101063.33
2019-04-01T04:36:54.803Z,101063.55
2019-04-01T04:39:24.151Z,101071.46
2019-04-01T04:41:52.569Z,101068.13
2019-04-01T04:44:21.950Z,101065.36
2019-04-01T04:46:50.830Z,101067.97
2019-04-01T04:49:21.258Z,101069.53
2019-04-01T04:51:50.142Z,101066.77
2019-04-01T04:54:19.067Z,101065.87
2019-04-01T04:56:47.317Z,101069.00
2019-04-01T04:59:16.605Z,101070.41
2019-04-01T05:01:44.984Z,101067.64
2019-04-01T05:04:13.772Z,101067.55
2019-04-01T05:06:43.643Z,101072.73
2019-04-01T05:09:12.828Z,101071.22
2019-04-01T05:11:40.966Z,101067.94
2019-04-01T05:14:09.390Z,101080.73
2019-04-01T05:16:40.086Z,101078.98
2019-04-01T05:19:09.004Z,101079.16
2019-04-01T05:21:38.306Z,101082.47
2019-04-01T05:24:06.550Z,101080.72
2019-04-01T05:26:35.961Z,101080.48
2019-04-01T05:29:05.270Z,101081.14
2019-04-01T05:31:34.292Z,101083.19
2019-04-01T05:34:02.624Z,101080.78
2019-04-01T05:36:31.922Z,101082.49
2019-04-01T05:39:00.233Z,101088.14
2019-04-01T05:41:30.387Z,101083.91
2019-04-01T05:44:02.535Z,101086.84
2019-04-01T05:46:32.908Z,101084.80
2019-04-01T05:49:02.329Z,101088.48
2019-04-01T05:51:30.536Z,101086.58
2019-04-01T05:53:59.533Z,101095.83
2019-04-01T05:56:28.784Z,101092.78
2019-04-01T05:58:57.054Z,101096.39
2019-04-01T06:01:32.575Z,101093.03
2019-04-01T06:04:03.132Z,101099.41
2019-04-01T06:06:32.314Z,101095.22
2019-04-01T06:09:01.521Z,101096.78
2019-04-01T06:11:30.783Z,101097.24
2019-04-01T06:13:59.202Z,101103.77
2019-04-01T06:16:29.865Z,101103.13
2019-04-01T06:19:00.124Z,101102.32
2019-04-01T06:21:29.508Z,101107.80
2019-04-01T06:23:58.552Z,101103.20
2019-04-01T06:26:26.812Z,101099.97
2019-04-01T06:28:55.019Z,101101.28
2019-04-01T06:31:23.185Z,101097.15
2019-04-01T06:33:52.445Z,101096.49
2019-04-01T06:36:20.664Z,101096.58
2019-04-01T06:38:49.647Z,101096.66
2019-04-01T06:41:18.136Z,101085.53
2019-04-01T06:43:48.843Z,101086.08
2019-04-01T06:46:17.938Z,101091.48
2019-04-01T06:48:47.097Z,101095.09
2019-04-01T06:51:15.561Z,101099.31
2019-04-01T06:53:44.585Z,101093.93
2019-04-01T06:56:13.101Z,101090.24
2019-04-01T06:58:42.335Z,101090.84
2019-04-01T07:01:11.683Z,101092.88
2019-04-01T07:03:40.195Z,101094.41
2019-04-01T07:06:09.483Z,101096.70
2019-04-01T07:08:39.503Z,101086.95
2019-04-01T07:11:08.898Z,101088.17
2019-04-01T07:13:39.995Z,101087.87
2019-04-01T07:16:15.213Z,101088.27
2019-04-01T07:18:38.255Z,101090.77
2019-04-01T07:21:06.422Z,101085.59
2019-04-01T07:23:35.714Z,101090.34
2019-04-01T07:26:04.155Z,101082.81
2019-04-01T07:28:32.307Z,101083.45
2019-04-01T07:31:00.527Z,101085.56
2019-04-01T07:33:31.440Z,101089.11
2019-04-01T07:36:00.283Z,101084.23
2019-04-01T07:38:29.298Z,101084.41
2019-04-01T07:40:59.328Z,101085.73
2019-04-01T07:43:27.795Z,101084.35
2019-04-01T07:45:59.880Z,101086.75
2019-04-01T07:48:27.917Z,101088.63
2019-04-01T07:50:56.162Z,101087.59
2019-04-01T07:53:25.597Z,101083.09
2019-04-01T07:55:55.581Z,101087.57
2019-04-01T07:58:24.776Z,101092.45
2019-04-01T08:00:53.350Z,101087.98
2019-04-01T08:03:22.491Z,101077.91
2019-04-01T08:05:50.878Z,101079.60
2019-04-01T08:08:20.347Z,101078.30
2019-04-01T08:10:50.650Z,101073.02
2019-04-01T08:13:19.062Z,101069.75
2019-04-01T08:15:47.350Z,101067.79
2019-04-01T08:18:16.648Z,101064.70
2019-04-01T08:20:46.471Z,101071.37
2019-04-01T08:23:15.865Z,101071.49
2019-04-01T08:25:47.739Z,101064.61
2019-04-01T08:28:14.944Z,101068.45
2019-04-01T08:30:44.277Z,101060.73
2019-04-01T08:33:12.515Z,101067.48
2019-04-01T08:35:40.691Z,101064.84
2019-04-01T08:38:08.969Z,101062.44
2019-04-01T08:40:38.376Z,101056.88
2019-04-01T08:43:08.590Z,101048.41
2019-04-01T08:45:38.370Z,101057.78
2019-04-01T08:48:07.909Z,101050.70
2019-04-01T08:50:36.276Z,101046.99
2019-04-01T08:53:05.544Z,101050.28
2019-04-01T08:55:33.883Z,101037.42
2019-04-01T08:58:02.040Z,101030.98
2019-04-01T09:00:30.206Z,101025.66
2019-04-01T09:02:58.553Z,101030.57
2019-04-01T09:05:28.021Z,101025.25
2019-04-01T09:07:57.186Z,101023.48
2019-04-01T09:10:25.387Z,101021.77
2019-04-01T09:12:56.663Z,101014.28
2019-04-01T09:15:25.915Z,101010.75
2019-04-01T09:17:54.625Z,101007.05
2019-04-01T09:20:23.588Z,101006.61
2019-04-01T09:22:51.813Z,100999.92
2019-04-01T09:25:19.945Z,100993.73
2019-04-01T09:27:48.217Z,101002.34
2019-04-01T09:30:18.699Z,101000.64
2019-04-01T09:32:47.245Z,100994.37
2019-04-01T09:35:16.236Z,100994.08
2019-04-01T09:37:44.499Z,100991.61
2019-04-01T09:40:12.712Z,100989.23
2019-04-01T09:42:43.772Z,100983.58
2019-04-01T09:45:13.063Z,100985.41
2019-04-01T09:47:41.481Z,100987.36
2019-04-01T09:50:10.799Z,100984.11
2019-04-01T09:52:40.167Z,100976.14
2019-04-01T09:55:09.621Z,100974.27
2019-04-01T09:57:37.884Z,100977.70
2019-04-01T10:00:07.383Z,100972.53
2019-04-01T10:02:36.712Z,100974.36
2019-04-01T10:05:07.746Z,100970.41
2019-04-01T10:07:36.112Z,100965.36
2019-04-01T10:10:06.425Z,100963.99
2019-04-01T10:12:34.829Z,100960.59
2019-04-01T10:15:04.328Z,100948.61
2019-04-01T10:17:33.714Z,100951.36
2019-04-01T10:20:03.135Z,100948.98
2019-04-01T10:22:31.275Z,100935.28
2019-04-01T10:24:59.584Z,100933.45
2019-04-01T10:27:30.778Z,100930.82
2019-04-01T10:30:00.019Z,100931.02
2019-04-01T10:32:29.364Z,100929.39
2019-04-01T10:34:58.853Z,100930.27
2019-04-01T10:37:27.982Z,100926.66
2019-04-01T10:40:00.174Z,100940.19
2019-04-01T10:42:28.146Z,100928.38
2019-04-01T10:44:56.342Z,100914.77
2019-04-01T10:47:24.479Z,100918.17
2019-04-01T10:49:52.822Z,100912.79
2019-04-01T10:52:22.895Z,100914.14
2019-04-01T10:54:52.110Z,100916.19
2019-04-01T10:57:21.064Z,100911.38
2019-04-01T10:59:49.718Z,100901.37
2019-04-01T11:02:19.275Z,100901.32
2019-04-01T11:04:48.716Z,100889.70
2019-04-01T11:07:17.874Z,100883.05
2019-04-01T11:09:46.178Z,100884.47
2019-04-01T11:12:15.611Z,100883.38
2019-04-01T11:14:46.440Z,100877.87
2019-04-01T11:17:16.034Z,100874.44
2019-04-01T11:19:44.413Z,100871.94
2019-04-01T11:22:13.777Z,100870.58
2019-04-01T11:24:43.049Z,100861.86
2019-04-01T11:27:11.425Z,100855.64
2019-04-01T11:29:39.693Z,100851.19
2019-04-01T11:32:08.914Z,100851.53
2019-04-01T11:34:38.185Z,100840.92
2019-04-01T11:37:07.394Z,100839.98
2019-04-01T11:39:38.414Z,100829.53
2019-04-01T11:42:08.035Z,100828.77
2019-04-01T11:44:37.404Z,100825.84
2019-04-01T11:47:05.771Z,100815.64
2019-04-01T11:49:35.324Z,100806.45
2019-04-01T11:52:04.676Z,100806.92
2019-04-01T11:54:33.461Z,100803.86
2019-04-01T11:57:02.402Z,100800.44
2019-04-01T11:59:30.656Z,100805.67
2019-04-01T12:02:00.107Z,100792.06
2019-04-01T12:04:29.911Z,100790.69
2019-04-01T12:07:01.879Z,100793.19
2019-04-01T12:09:29.720Z,100779.67
2019-04-01T12:11:58.231Z,100767.12
2019-04-01T12:14:27.401Z,100768.81
2019-04-01T12:16:55.812Z,100764.20
2019-04-01T12:19:25.191Z,100761.78
2019-04-01T12:21:54.437Z,100752.45
2019-04-01T12:24:22.759Z,100740.64
2019-04-01T12:26:51.563Z,100732.80
2019-04-01T12:29:21.039Z,100734.23
2019-04-01T12:31:51.622Z,100727.30
2019-04-01T12:34:20.697Z,100730.38
2019-04-01T12:36:50.107Z,100735.41
2019-04-01T12:39:19.423Z,100723.32
2019-04-01T12:41:48.783Z,100722.94
2019-04-01T12:44:17.100Z,100721.47
2019-04-01T12:46:45.425Z,100722.98
2019-04-01T12:49:14.199Z,100710.31
2019-04-01T12:51:44.835Z,100700.80
2019-04-01T12:54:15.364Z,100695.84
2019-04-01T12:56:44.479Z,100704.76
2019-04-01T12:59:13.495Z,100701.64
2019-04-01T13:01:42.350Z,100695.45
2019-04-01T13:04:10.643Z,100698.31
2019-04-01T13:06:38.815Z,100693.75
2019-04-01T13:09:08.389Z,100689.56
2019-04-01T13:11:37.524Z,100691.96
2019-04-01T13:14:05.827Z,100681.95
2019-04-01T13:16:36.845Z,100678.86
2019-04-01T13:19:06.534Z,100668.37
2019-04-01T13:21:35.429Z,100669.45
2019-04-01T13:24:05.112Z,100664.44
2019-04-01T13:26:34.767Z,100667.25
2019-04-01T13:29:04.081Z,100670.16
2019-04-01T13:31:33.326Z,100664.59
2019-04-01T13:34:02.556Z,100651.05
2019-04-01T13:36:30.833Z,100646.91
2019-04-01T13:38:59.801Z,100642.89
2019-04-01T13:41:41.746Z,100641.31
2019-04-01T13:44:00.450Z,100637.52
2019-04-01T13:46:28.755Z,100636.77
2019-04-01T13:49:00.521Z,100633.06
2019-04-01T13:51:27.651Z,100627.45
2019-04-01T13:54:08.041Z,100622.66
2019-04-01T13:56:28.024Z,100626.87
2019-04-01T13:58:58.784Z,100618.20
2019-04-01T14:01:28.477Z,100618.88
2019-04-01T14:04:00.510Z,100610.82
2019-04-01T14:06:29.630Z,100603.38
2019-04-01T14:09:00.649Z,100601.98
2019-04-01T14:11:29.814Z,100604.19
2019-04-01T14:14:00.814Z,100601.16
2019-04-01T14:16:31.291Z,100593.52
2019-04-01T14:19:00.584Z,100593.00
2019-04-01T14:21:28.797Z,100590.53
2019-04-01T14:23:57.030Z,100588.33
2019-04-01T14:26:25.725Z,100587.12
2019-04-01T14:28:54.802Z,100582.34
2019-04-01T14:31:24.230Z,100580.06
2019-04-01T14:33:53.524Z,100577.17
2019-04-01T14:36:23.259Z,100573.45
2019-04-01T14:38:54.098Z,100573.04
2019-04-01T14:41:23.284Z,100566.41
2019-04-01T14:43:55.263Z,100567.44
2019-04-01T14:46:24.833Z,100558.22
2019-04-01T14:48:54.179Z,100556.25
2019-04-01T14:51:23.031Z,100549.50
2019-04-01T14:53:51.705Z,100558.20
2019-04-01T14:56:20.646Z,100550.56
2019-04-01T14:58:51.057Z,100547.95
2019-04-01T15:01:21.908Z,100547.31
2019-04-01T15:03:55.440Z,100534.19
2019-04-01T15:06:24.028Z,100537.19
2019-04-01T15:08:52.609Z,100537.39
2019-04-01T15:11:21.822Z,100530.98
2019-04-01T15:13:51.077Z,100536.86
2019-04-01T15:16:22.152Z,100531.09
2019-04-01T15:18:51.263Z,100528.80
2019-04-01T15:21:19.882Z,100525.77
2019-04-01T15:23:53.117Z,100527.77
2019-04-01T15:26:19.990Z,100520.73
2019-04-01T15:28:48.385Z,100522.70
2019-04-01T15:31:16.537Z,100509.19
2019-04-01T15:33:45.067Z,100517.64
2019-04-01T15:36:14.037Z,100511.11
2019-04-01T15:38:44.715Z,100515.98
2019-04-01T15:41:13.145Z,100507.41
2019-04-01T15:43:41.980Z,100506.62
2019-04-01T15:46:10.724Z,100503.64
2019-04-01T15:48:39.165Z,100501.25
2019-04-01T15:51:07.905Z,100488.31
2019-04-01T15:53:37.206Z,100492.23
2019-04-01T15:56:06.674Z,100486.72
2019-04-01T15:58:35.275Z,100490.42
2019-04-01T16:01:03.636Z,100485.52
2019-04-01T16:03:32.127Z,100481.58
2019-04-01T16:06:03.113Z,100481.05
2019-04-01T16:08:32.138Z,100474.11
2019-04-01T16:11:00.429Z,100475.14
2019-04-01T16:13:28.606Z,100476.29
2019-04-01T16:15:57.124Z,100473.09
2019-04-01T16:18:26.806Z,100473.00
2019-04-01T16:20:59.296Z,100461.68
2019-04-01T16:23:26.528Z,100462.02
2019-04-01T16:25:55.208Z,100470.78
2019-04-01T16:28:26.102Z,100467.14
2019-04-01T16:30:57.023Z,100472.66
2019-04-01T16:33:25.770Z,100456.73
2019-04-01T16:35:54.354Z,100456.30
2019-04-01T16:38:23.469Z,100461.89
2019-04-01T17:50:41.715Z,100460.84
2019-04-01T18:52:19.717Z,100482.52
2019-04-01T18:55:31.553Z,100484.69
2019-04-01T21:14:41.798Z,100435.44
2019-04-01T22:26:32.769Z,100391.45
